Kezdőlap
METAR-TAF:

METAR-TAF

Repülőterek :

Mahajanga, Madagaszkár

földrajzi szélesség: 15-40S, földrajzi hosszúság: 046-21E, magasság: 26 m

Jelenlegi meteorológiai megfigyelések

A jelentés 1 órával és 23 perccel ezelõtt készült, 17:00 UTC
Kelet-délkeleti szél 8 kt
Hőmérséklet 26°C
Páratartalom 45%
Légköri nyomás 1019 hPa
Látótávolság 10 km, vagy több
felhőtlen 1500 m magasságban, és nincs gomolyfelhõ

METAR: FMNM 131700Z 12008KT CAVOK 26/13 Q1019 NOSIG

Idő: 21:23 (18:23 UTC)

Előrejelzés

A jelentés 1 órával és 23 perccel ezelõtt készült, 17:00 UTC
Az előrejelzés 13-én 18 óra UTC és 14-én 18 óra UTC között érvényes
Délkeleti szél 12 kt
Látótávolság 10 km, vagy több
Kevés felhő 2300 lábon

TAF: FMNM 131700Z 1318/1418 13012KT 9999 FEW023

Meteorológiai megfigyelések és előrejelzések több, mint 4000 repülőtéren (METAR és TAF jelentéseket).

A térképen piros és sárga pontok jelzik az elérhető meteorológiai állomásokat.

Mozgassa az egeret a pont fölött, hogy megjelenjen az állomás neve.

Azután kattintson az időjárási megfigyelések és előrejelzések megtekintéséhez.

A térkép megváltoztatása: kattintson a fekete keresztel jelölt zöld gombra ráközelítéshez, a vonallal jelölt zöld gombra távolításhoz, vagy a zöld nyilakra a szomszédos térképek eléréséhez.


METAR-TAF: